Time;durP1;ratioP1;P1;durP2;ratioP2;P2;SDS_P1;SDS_P2;PMS_P1;PMS_P2;Temp;Humidity;BMP_temperature;BMP_pressure;BME280_temperature;BME280_humidity;BME280_pressure;Samples;Min_cycle;Max_cycle;Signal;HPM_P1;HPM_P2
2021/03/19 00:01:30;;;;;;;18.77;13.35;;;5.70;99.90;;;;;;5070616;28;20020;-76
2021/03/19 00:03:56;;;;;;;21.63;13.35;;;5.60;99.90;;;;;;5060198;28;20060;-76
2021/03/19 00:06:22;;;;;;;20.08;13.35;;;5.60;99.90;;;;;;5052137;28;20527;-75
2021/03/19 00:08:48;;;;;;;22.52;14.02;;;5.60;99.90;;;;;;5062459;28;20028;-75
2021/03/19 00:11:14;;;;;;;22.33;14.52;;;5.30;99.90;;;;;;5071986;28;20028;-74
2021/03/19 00:13:40;;;;;;;22.00;13.80;;;5.20;99.90;;;;;;5070784;28;20479;-75
2021/03/19 00:16:07;;;;;;;26.17;17.15;;;5.40;99.90;;;;;;5071890;28;20055;-76
2021/03/19 00:18:35;;;;;;;32.30;18.20;;;5.60;99.90;;;;;;5071128;28;20028;-76
2021/03/19 00:21:01;;;;;;;29.95;18.27;;;5.60;99.90;;;;;;5072385;28;20035;-77
2021/03/19 00:23:27;;;;;;;32.42;19.55;;;5.60;99.90;;;;;;5072417;28;20056;-77
2021/03/19 00:25:52;;;;;;;30.08;19.77;;;5.50;99.90;;;;;;5072393;28;20052;-77
2021/03/19 00:28:18;;;;;;;29.67;17.83;;;5.40;99.90;;;;;;5072543;28;20056;-77
2021/03/19 00:30:45;;;;;;;29.17;18.30;;;5.30;99.90;;;;;;5071967;28;20040;-77
2021/03/19 00:33:13;;;;;;;25.35;17.30;;;5.40;99.90;;;;;;5072154;28;20028;-77
2021/03/19 00:35:40;;;;;;;24.00;15.95;;;5.30;99.90;;;;;;5072269;28;20044;-77
2021/03/19 00:38:07;;;;;;;26.33;16.40;;;5.30;99.90;;;;;;5072246;28;20021;-77
2021/03/19 00:40:33;;;;;;;25.17;16.83;;;5.50;99.90;;;;;;5072461;28;20025;-76
2021/03/19 00:42:59;;;;;;;26.42;15.68;;;5.40;99.90;;;;;;5076817;28;20020;-77
2021/03/19 00:45:26;;;;;;;22.75;15.07;;;5.40;99.90;;;;;;5092140;28;20111;-76
2021/03/19 00:47:53;;;;;;;24.55;15.85;;;5.40;99.90;;;;;;5091709;28;20032;-77
2021/03/19 00:50:30;;;;;;;21.52;15.02;;;5.30;99.90;;;;;;5091653;28;20024;-77
2021/03/19 00:52:56;;;;;;;21.08;14.30;;;5.30;99.90;;;;;;5091885;28;20024;-77
2021/03/19 00:55:23;;;;;;;22.95;15.25;;;5.10;99.90;;;;;;5090727;28;20107;-79
2021/03/19 00:57:50;;;;;;;23.80;15.45;;;5.30;99.90;;;;;;5092284;28;20032;-78
2021/03/19 01:00:17;;;;;;;22.70;14.90;;;5.40;99.90;;;;;;5091453;28;20149;-78
2021/03/19 01:02:43;;;;;;;22.67;14.23;;;5.40;99.90;;;;;;5091967;28;20022;-76
2021/03/19 01:05:16;;;;;;;22.55;13.85;;;5.60;99.90;;;;;;5092369;28;20020;-78
2021/03/19 01:07:43;;;;;;;19.83;13.23;;;5.60;99.90;;;;;;5091024;28;20073;-79
2021/03/19 01:10:12;;;;;;;23.67;13.82;;;5.50;99.90;;;;;;5092152;28;20085;-78
2021/03/19 01:12:38;;;;;;;19.27;12.52;;;5.50;99.90;;;;;;5090950;28;20052;-76
2021/03/19 01:15:06;;;;;;;19.50;12.85;;;5.30;99.90;;;;;;5091422;28;20024;-74
2021/03/19 01:17:33;;;;;;;22.50;13.77;;;5.20;99.90;;;;;;5091757;28;20117;-75
2021/03/19 01:19:59;;;;;;;19.60;12.15;;;5.30;99.90;;;;;;5091793;28;20020;-77
2021/03/19 01:22:24;;;;;;;20.48;13.43;;;5.20;99.90;;;;;;5091513;28;20032;-77
2021/03/19 01:24:50;;;;;;;20.23;12.95;;;4.90;99.90;;;;;;5092190;28;20030;-77
2021/03/19 01:27:16;;;;;;;20.00;12.82;;;4.80;99.90;;;;;;5092002;28;20020;-76
2021/03/19 01:29:41;;;;;;;19.58;13.07;;;4.90;99.90;;;;;;5091499;28;20092;-74
2021/03/19 01:32:07;;;;;;;21.55;14.52;;;4.70;99.90;;;;;;5091808;28;20052;-76
2021/03/19 01:34:33;;;;;;;19.38;13.18;;;4.90;99.90;;;;;;5091624;28;20017;-76
2021/03/19 01:36:59;;;;;;;22.05;13.38;;;5.10;99.90;;;;;;5091366;28;20024;-75
2021/03/19 01:39:24;;;;;;;17.30;12.57;;;5.10;99.90;;;;;;5089986;28;20511;-77
2021/03/19 01:41:52;;;;;;;22.52;13.13;;;5.00;99.90;;;;;;5091156;28;20114;-76
2021/03/19 01:44:23;;;;;;;19.77;13.10;;;4.70;99.90;;;;;;5075732;28;20024;-76
2021/03/19 01:47:07;;;;;;;;;;;5.00;99.90;;;;;;5071793;28;20033;-75
2021/03/19 01:50:11;;;;;;;19.20;13.13;;;5.20;99.90;;;;;;5069841;28;20002;-76
2021/03/19 01:53:14;;;;;;;18.90;12.60;;;5.10;99.90;;;;;;5071341;28;20445;-76
2021/03/19 01:56:17;;;;;;;22.15;13.27;;;5.30;99.90;;;;;;5071775;28;20016;-76
2021/03/19 01:59:20;;;;;;;19.05;12.45;;;5.40;99.90;;;;;;5072558;28;20040;-75
2021/03/19 02:02:23;;;;;;;20.00;13.85;;;5.30;99.90;;;;;;5074716;28;20419;-76
2021/03/19 02:05:26;;;;;;;18.90;12.73;;;5.20;99.90;;;;;;5075041;28;20028;-76
2021/03/19 02:08:29;;;;;;;22.05;13.55;;;5.10;99.90;;;;;;5073046;28;20115;-74
2021/03/19 02:11:32;;;;;;;17.23;12.50;;;5.20;99.90;;;;;;5074043;28;20100;-75
2021/03/19 02:14:35;;;;;;;21.20;13.63;;;5.30;99.90;;;;;;5074166;28;20082;-75
2021/03/19 02:17:38;;;;;;;18.25;12.40;;;5.60;99.90;;;;;;5075112;28;20059;-75
2021/03/19 02:20:41;;;;;;;18.52;12.48;;;5.30;99.90;;;;;;5074357;28;20035;-75
2021/03/19 02:23:44;;;;;;;17.95;12.15;;;5.30;99.90;;;;;;5074540;28;20035;-75
2021/03/19 02:26:48;;;;;;;18.55;11.80;;;5.50;99.90;;;;;;5073782;28;20032;-75
2021/03/19 02:29:51;;;;;;;18.58;12.20;;;5.50;99.90;;;;;;5074320;28;20029;-76
2021/03/19 02:32:22;;;;;;;19.85;13.43;;;5.60;99.90;;;;;;5074934;28;20044;-77
2021/03/19 02:35:06;;;;;;;17.17;12.40;;;5.50;99.90;;;;;;5074815;28;20027;-76
2021/03/19 02:37:37;;;;;;;21.33;12.60;;;5.40;99.90;;;;;;5073013;28;20437;-76
2021/03/19 02:40:13;;;;;;;19.13;13.43;;;4.90;99.90;;;;;;5073712;28;20024;-75
2021/03/19 02:42:39;;;;;;;20.27;13.00;;;5.10;99.90;;;;;;5073975;28;20388;-75
2021/03/19 02:45:09;;;;;;;18.63;13.35;;;5.10;99.90;;;;;;5093222;28;20486;-75
2021/03/19 02:47:35;;;;;;;19.40;13.23;;;5.10;99.90;;;;;;5094238;28;20032;-76
2021/03/19 02:50:01;;;;;;;20.80;13.82;;;5.20;99.90;;;;;;5092227;28;20110;-75
2021/03/19 02:52:33;;;;;;;25.02;13.75;;;5.30;99.90;;;;;;5092698;28;20036;-77
2021/03/19 02:54:59;;;;;;;17.30;12.50;;;5.10;99.90;;;;;;5076048;28;20035;-77
2021/03/19 02:57:25;;;;;;;22.92;13.52;;;5.10;99.90;;;;;;5092852;28;20031;-78
2021/03/19 02:59:51;;;;;;;19.42;13.15;;;5.10;99.90;;;;;;5094025;28;20020;-77
2021/03/19 03:02:16;;;;;;;21.20;14.13;;;5.20;99.90;;;;;;5093462;28;20047;-76
2021/03/19 03:04:42;;;;;;;21.75;14.85;;;5.30;99.90;;;;;;5094256;28;20521;-76
2021/03/19 03:07:22;;;;;;;21.08;14.48;;;5.30;99.90;;;;;;5094658;28;20020;-77
2021/03/19 03:09:49;;;;;;;21.83;14.45;;;5.10;99.90;;;;;;5094300;28;20060;-77
2021/03/19 03:12:15;;;;;;;20.90;14.30;;;4.90;99.90;;;;;;5093964;28;20042;-77
2021/03/19 03:14:41;;;;;;;21.30;13.40;;;4.90;99.90;;;;;;5093822;28;20020;-76
2021/03/19 03:17:08;;;;;;;21.73;13.65;;;5.10;99.90;;;;;;5093927;28;20056;-76
2021/03/19 03:19:34;;;;;;;22.20;13.75;;;5.30;99.90;;;;;;5093546;28;20020;-77
2021/03/19 03:22:00;;;;;;;21.20;13.75;;;5.40;99.90;;;;;;5092062;28;20035;-76
2021/03/19 03:27:48;;;;;;;18.15;12.55;;;5.30;99.90;;;;;;5094003;28;20051;-77
2021/03/19 03:30:20;;;;;;;20.30;12.90;;;5.40;99.90;;;;;;5093015;28;20039;-76
2021/03/19 03:32:46;;;;;;;18.80;12.10;;;5.40;99.90;;;;;;5093643;28;20035;-76
2021/03/19 03:35:13;;;;;;;19.75;12.52;;;5.50;99.90;;;;;;5092194;28;20027;-76
2021/03/19 03:37:39;;;;;;;17.55;11.90;;;5.50;99.90;;;;;;5093204;28;20035;-76
2021/03/19 03:40:13;;;;;;;18.27;11.98;;;5.10;99.90;;;;;;5092741;28;20020;-76
2021/03/19 03:42:39;;;;;;;17.45;12.00;;;5.10;99.90;;;;;;5093244;28;20051;-76
2021/03/19 03:45:06;;;;;;;17.60;11.48;;;5.20;99.90;;;;;;5075044;28;20376;-76
2021/03/19 03:47:32;;;;;;;18.75;11.75;;;5.30;99.90;;;;;;5072802;28;20028;-77
2021/03/19 03:49:57;;;;;;;19.98;13.02;;;5.30;99.90;;;;;;5072716;28;20051;-76
2021/03/19 03:52:24;;;;;;;19.98;12.55;;;5.40;99.90;;;;;;5072858;28;20045;-75
2021/03/19 03:54:49;;;;;;;18.10;12.05;;;5.50;99.90;;;;;;5072937;28;20024;-76
2021/03/19 03:57:15;;;;;;;16.20;12.05;;;5.40;99.90;;;;;;5072986;28;20021;-76
2021/03/19 03:59:41;;;;;;;19.13;11.65;;;5.30;99.90;;;;;;5072630;28;20463;-76
2021/03/19 04:02:21;;;;;;;16.02;11.57;;;5.40;99.90;;;;;;5073019;28;20163;-76
2021/03/19 04:04:49;;;;;;;16.60;12.00;;;5.50;99.90;;;;;;5072554;28;20620;-76
2021/03/19 04:07:15;;;;;;;16.50;12.32;;;5.50;99.90;;;;;;5070931;28;20173;-76
2021/03/19 04:09:41;;;;;;;17.85;12.15;;;5.40;99.90;;;;;;5072187;28;20104;-75
2021/03/19 04:12:09;;;;;;;16.88;11.30;;;5.40;99.90;;;;;;5071908;28;20036;-74
2021/03/19 04:14:35;;;;;;;19.67;12.57;;;5.30;99.90;;;;;;5072059;28;20099;-74
2021/03/19 04:17:10;;;;;;;17.58;12.05;;;5.30;99.90;;;;;;5072313;28;20047;-75
2021/03/19 04:19:37;;;;;;;17.13;12.15;;;5.20;99.90;;;;;;5071956;28;20020;-76
2021/03/19 04:22:04;;;;;;;18.85;12.50;;;5.20;99.90;;;;;;5070188;28;20028;-74
2021/03/19 04:24:30;;;;;;;17.95;11.63;;;5.30;99.90;;;;;;5071746;28;20020;-74
2021/03/19 04:26:56;;;;;;;15.52;11.95;;;5.30;99.90;;;;;;5071901;28;20028;-74
2021/03/19 04:29:22;;;;;;;16.95;11.05;;;5.30;99.90;;;;;;5071871;28;20017;-76
2021/03/19 04:31:49;;;;;;;16.60;12.32;;;5.30;99.90;;;;;;5072402;28;20052;-76
2021/03/19 04:34:15;;;;;;;16.15;11.85;;;5.30;99.90;;;;;;5070930;28;20032;-76
2021/03/19 04:36:46;;;;;;;16.52;12.25;;;5.30;99.90;;;;;;5072040;28;20035;-75
2021/03/19 04:39:24;;;;;;;20.13;12.73;;;4.90;99.90;;;;;;5071702;28;20032;-75
2021/03/19 04:41:53;;;;;;;15.60;11.75;;;4.70;99.90;;;;;;5071229;28;20495;-74
2021/03/19 04:44:21;;;;;;;18.33;12.60;;;4.50;99.90;;;;;;5081566;28;20030;-74
2021/03/19 04:46:47;;;;;;;18.58;12.98;;;4.50;99.90;;;;;;5090503;28;20398;-74
2021/03/19 04:49:13;;;;;;;17.75;12.38;;;4.70;99.90;;;;;;5091524;28;20023;-75
2021/03/19 04:51:39;;;;;;;18.73;12.07;;;4.80;99.90;;;;;;5091418;28;20073;-74
2021/03/19 04:54:07;;;;;;;18.55;12.45;;;4.80;99.90;;;;;;5090536;28;20137;-75
2021/03/19 04:56:33;;;;;;;19.23;12.63;;;5.00;99.90;;;;;;5090565;28;20031;-75
2021/03/19 04:59:00;;;;;;;18.52;13.25;;;5.20;99.90;;;;;;5091195;28;20048;-76
2021/03/19 05:01:26;;;;;;;18.52;11.95;;;5.30;99.90;;;;;;5092005;28;20024;-76
2021/03/19 05:03:51;;;;;;;19.88;13.07;;;5.30;99.90;;;;;;5091684;28;20036;-75
2021/03/19 05:06:18;;;;;;;17.42;13.07;;;5.40;99.90;;;;;;5090510;28;20024;-76
2021/03/19 05:08:45;;;;;;;18.58;12.70;;;5.40;99.90;;;;;;5090574;28;20024;-75
2021/03/19 05:11:12;;;;;;;19.00;13.15;;;5.30;99.90;;;;;;5091710;28;20436;-76
2021/03/19 05:13:38;;;;;;;16.25;10.80;;;5.20;99.90;;;;;;5090635;28;20039;-76
2021/03/19 05:16:04;;;;;;;17.63;11.88;;;5.10;99.90;;;;;;5091582;28;20380;-74
2021/03/19 05:18:30;;;;;;;18.10;12.43;;;5.30;99.90;;;;;;5091495;28;20024;-74
2021/03/19 05:20:56;;;;;;;17.60;12.18;;;5.40;99.90;;;;;;5091862;28;20086;-75
2021/03/19 05:23:31;;;;;;;18.02;12.70;;;5.40;99.90;;;;;;5090968;28;20122;-74
2021/03/19 05:25:56;;;;;;;19.92;13.27;;;5.50;99.90;;;;;;5091483;28;20020;-74
2021/03/19 05:28:23;;;;;;;20.65;13.07;;;5.20;99.90;;;;;;5091441;28;20081;-74
2021/03/19 05:30:53;;;;;;;18.75;12.43;;;5.40;99.90;;;;;;5091180;28;20044;-74
2021/03/19 05:33:24;;;;;;;26.33;14.90;;;5.40;99.90;;;;;;5092021;28;20024;-74
2021/03/19 05:35:51;;;;;;;21.80;14.13;;;4.90;99.90;;;;;;5093673;28;20479;-74
2021/03/19 05:38:17;;;;;;;20.20;14.10;;;5.20;99.90;;;;;;5095090;28;20044;-75
2021/03/19 05:40:52;;;;;;;22.65;14.50;;;5.10;99.90;;;;;;5095341;28;20027;-73
2021/03/19 05:43:21;;;;;;;19.65;12.85;;;5.10;99.90;;;;;;5093790;28;20475;-75
2021/03/19 05:46:06;;;;;;;18.67;12.45;;;5.20;99.90;;;;;;5074852;28;20532;-75
2021/03/19 05:49:05;;;;;;;19.02;13.05;;;5.10;99.90;;;;;;5074574;28;20017;-74
2021/03/19 05:51:32;;;;;;;20.02;12.70;;;5.00;99.90;;;;;;5074623;28;20050;-76
2021/03/19 05:54:09;;;;;;;16.65;12.10;;;5.00;99.90;;;;;;5074525;28;20031;-76
2021/03/19 05:56:36;;;;;;;17.70;11.80;;;5.10;99.90;;;;;;5075485;28;20021;-76
2021/03/19 05:59:02;;;;;;;16.98;12.50;;;5.10;99.90;;;;;;5075559;28;20021;-78
2021/03/19 06:01:27;;;;;;;18.40;12.45;;;4.80;99.90;;;;;;5074487;28;20434;-74
2021/03/19 06:03:59;;;;;;;19.67;12.75;;;4.80;99.90;;;;;;5075123;28;20020;-75
2021/03/19 06:06:46;;;;;;;18.40;12.27;;;5.20;99.90;;;;;;5074832;28;20048;-75
2021/03/19 06:09:31;;;;;;;17.52;12.85;;;5.40;99.90;;;;;;5072902;28;20074;-75
2021/03/19 06:12:02;;;;;;;34.63;17.60;;;5.40;99.90;;;;;;5074218;28;20036;-78
2021/03/19 06:14:32;;;;;;;21.30;13.98;;;5.90;99.90;;;;;;5073166;28;20028;-76
2021/03/19 06:17:11;;;;;;;21.40;12.93;;;5.70;99.90;;;;;;5074389;28;20039;-75
2021/03/19 06:19:45;;;;;;;17.75;13.23;;;5.80;99.90;;;;;;5074381;28;20384;-76
2021/03/19 06:22:43;;;;;;;53.53;32.35;;;5.50;99.90;;;;;;5073094;28;20020;-77
2021/03/19 06:25:17;;;;;;;40.22;24.67;;;6.10;99.90;;;;;;5072526;28;20036;-77
2021/03/19 06:27:57;;;;;;;19.95;14.38;;;6.10;99.90;;;;;;5073871;28;20104;-76
2021/03/19 06:30:33;;;;;;;21.38;14.20;;;5.90;99.90;;;;;;5072739;28;20037;-76
2021/03/19 06:33:07;;;;;;;21.40;14.00;;;5.70;99.90;;;;;;5073414;28;20483;-75
2021/03/19 06:35:36;;;;;;;19.35;13.60;;;5.80;99.90;;;;;;5073799;28;20029;-78
2021/03/19 06:38:26;;;;;;;25.67;14.75;;;5.70;99.90;;;;;;5072489;28;20162;-76
2021/03/19 06:40:53;;;;;;;19.45;12.43;;;5.60;99.90;;;;;;5073921;28;20024;-78
2021/03/19 06:43:28;;;;;;;23.38;13.57;;;5.40;99.90;;;;;;5073264;28;20078;-76
2021/03/19 06:46:11;;;;;;;18.17;12.70;;;5.30;99.90;;;;;;5053383;28;20025;-77
2021/03/19 06:48:44;;;;;;;16.80;11.93;;;5.40;99.90;;;;;;5062224;28;20473;-77
2021/03/19 06:51:22;;;;;;;17.27;12.88;;;5.70;99.90;;;;;;5078405;28;20043;-78
2021/03/19 06:54:06;;;;;;;21.35;13.40;;;5.80;99.90;;;;;;5078216;28;20384;-77
2021/03/19 06:56:33;;;;;;;18.77;12.55;;;5.70;99.90;;;;;;5073112;28;20383;-79
2021/03/19 06:59:21;;;;;;;19.80;13.25;;;5.30;99.90;;;;;;5055795;28;20636;-77
2021/03/19 07:01:46;;;;;;;62.10;34.33;;;5.50;99.90;;;;;;5070259;28;20443;-77
2021/03/19 07:04:42;;;;;;;18.77;14.63;;;6.60;99.90;;;;;;5071668;28;20032;-78
2021/03/19 07:07:14;;;;;;;19.95;13.65;;;6.30;99.90;;;;;;5065454;28;20036;-76
2021/03/19 07:09:53;;;;;;;19.35;13.05;;;5.60;99.90;;;;;;5071505;28;20027;-77
2021/03/19 07:12:44;;;;;;;18.70;12.23;;;5.30;99.90;;;;;;5072703;28;20040;-77
2021/03/19 07:15:12;;;;;;;19.88;12.65;;;5.60;99.90;;;;;;5050915;28;20025;-77
2021/03/19 07:17:41;;;;;;;19.40;13.02;;;5.70;99.90;;;;;;5057913;28;20073;-76
2021/03/19 07:20:16;;;;;;;18.98;13.38;;;5.60;99.90;;;;;;5072278;28;20433;-78
2021/03/19 07:22:56;;;;;;;20.50;12.40;;;5.90;99.90;;;;;;5072593;28;20028;-79
2021/03/19 07:25:43;;;;;;;16.65;13.23;;;6.00;99.90;;;;;;5071208;28;20476;-78
2021/03/19 07:28:31;;;;;;;17.58;12.40;;;6.20;99.90;;;;;;5067088;28;20046;-79
2021/03/19 07:31:14;;;;;;;19.08;12.85;;;6.10;99.90;;;;;;5071815;28;20173;-77
2021/03/19 07:33:59;;;;;;;18.30;11.98;;;6.40;99.90;;;;;;5072004;28;20044;-78
2021/03/19 07:37:12;;;;;;;20.80;13.80;;;6.50;99.90;;;;;;5070902;28;20102;-79
2021/03/19 07:39:53;;;;;;;18.77;13.00;;;6.40;99.90;;;;;;5071540;28;20068;-77
2021/03/19 07:42:38;;;;;;;21.45;13.77;;;6.40;99.90;;;;;;5072095;28;20031;-77
2021/03/19 07:45:42;;;;;;;21.75;13.82;;;6.50;99.90;;;;;;5073289;28;20147;-79
2021/03/19 07:48:22;;;;;;;21.05;14.10;;;6.90;99.90;;;;;;5090508;28;20035;-76
2021/03/19 07:51:06;;;;;;;19.13;13.63;;;7.20;99.90;;;;;;5090362;28;20051;-77
2021/03/19 07:53:57;;;;;;;21.00;13.15;;;7.40;99.90;;;;;;5091862;28;20039;-79
2021/03/19 07:56:48;;;;;;;19.85;13.95;;;7.50;99.90;;;;;;5071167;28;20506;-77
2021/03/19 07:59:48;;;;;;;21.13;13.75;;;7.40;99.90;;;;;;5069275;28;20384;-78
2021/03/19 08:02:24;;;;;;;18.90;12.88;;;7.80;99.90;;;;;;5068562;28;20119;-77
2021/03/19 08:05:26;;;;;;;17.50;12.63;;;8.30;97.80;;;;;;5071295;28;20020;-78
2021/03/19 08:08:01;;;;;;;26.55;13.38;;;8.30;97.10;;;;;;5067950;28;20044;-78
2021/03/19 08:10:33;;;;;;;21.48;13.20;;;8.20;96.60;;;;;;5070236;28;20029;-76
2021/03/19 08:13:24;;;;;;;18.05;12.48;;;8.30;95.90;;;;;;5065855;28;20112;-76
2021/03/19 08:16:00;;;;;;;17.70;13.93;;;8.50;95.40;;;;;;5049788;28;20040;-76
2021/03/19 08:18:39;;;;;;;18.33;11.95;;;8.50;95.10;;;;;;5049923;28;20033;-76
2021/03/19 08:21:36;;;;;;;20.93;13.97;;;8.50;94.70;;;;;;5051452;28;20384;-79
2021/03/19 08:24:11;;;;;;;22.23;13.73;;;8.80;94.60;;;;;;5050019;28;20032;-78
2021/03/19 08:26:53;;;;;;;19.00;11.95;;;8.40;95.80;;;;;;5049723;28;20119;-77
2021/03/19 08:29:39;;;;;;;18.45;13.23;;;9.20;92.80;;;;;;5049982;28;20036;-77
2021/03/19 08:32:33;;;;;;;18.05;12.07;;;9.40;91.70;;;;;;5052127;28;20045;-77
2021/03/19 08:35:37;;;;;;;18.42;12.68;;;9.50;90.30;;;;;;5060114;28;20422;-78
2021/03/19 08:38:12;;;;;;;17.10;12.25;;;10.00;86.90;;;;;;5063194;28;20027;-78
2021/03/19 08:41:10;;;;;;;17.23;12.63;;;10.10;86.60;;;;;;5069936;28;20029;-76
2021/03/19 08:43:44;;;;;;;17.88;12.85;;;10.80;85.00;;;;;;5054374;28;20061;-78
2021/03/19 08:46:24;;;;;;;19.42;12.70;;;10.40;82.30;;;;;;5059916;28;20052;-77
2021/03/19 08:49:04;;;;;;;19.67;13.10;;;10.10;83.50;;;;;;5056529;28;20144;-78
2021/03/19 08:51:30;;;;;;;18.33;12.90;;;10.60;83.00;;;;;;5064275;28;20039;-80
2021/03/19 08:54:15;;;;;;;19.15;13.10;;;10.90;79.00;;;;;;5062682;28;20021;-76
2021/03/19 08:56:43;;;;;;;21.30;13.43;;;10.80;77.90;;;;;;5057993;28;20082;-78
2021/03/19 08:59:10;;;;;;;20.67;13.05;;;10.50;79.70;;;;;;5059529;28;20112;-79
2021/03/19 09:01:50;;;;;;;19.30;12.80;;;10.60;78.80;;;;;;5057771;28;20035;-77
2021/03/19 09:04:17;;;;;;;19.13;14.03;;;10.60;79.40;;;;;;5058337;28;20027;-78
2021/03/19 09:07:19;;;;;;;19.40;13.77;;;10.40;79.10;;;;;;5061622;28;20067;-79
2021/03/19 09:09:45;;;;;;;20.38;13.43;;;10.10;79.10;;;;;;5074880;28;20048;-78
2021/03/19 09:12:15;;;;;;;19.33;13.18;;;10.70;79.80;;;;;;5074656;28;20047;-78
2021/03/19 09:14:52;;;;;;;19.83;14.07;;;11.20;77.50;;;;;;5055334;28;20111;-78
2021/03/19 09:17:56;;;;;;;17.73;12.88;;;9.90;76.10;;;;;;5054380;28;20060;-76
2021/03/19 09:20:43;;;;;;;19.30;12.77;;;8.50;88.20;;;;;;5054499;28;20067;-78
2021/03/19 09:23:10;;;;;;;18.40;12.90;;;8.40;88.60;;;;;;5060672;28;20029;-76
2021/03/19 09:25:55;;;;;;;18.42;12.38;;;8.80;85.20;;;;;;5053575;28;20104;-79
2021/03/19 09:28:47;;;;;;;16.63;11.57;;;8.90;83.80;;;;;;5063798;28;20083;-79
2021/03/19 09:31:34;;;;;;;18.25;11.48;;;9.10;82.80;;;;;;5054354;28;20040;-80
2021/03/19 09:34:11;;;;;;;20.95;12.57;;;9.70;79.00;;;;;;5053571;28;20021;-79
2021/03/19 09:36:58;;;;;;;15.98;11.55;;;10.50;76.30;;;;;;5053599;28;20032;-79
2021/03/19 09:39:44;;;;;;;16.98;11.90;;;11.00;74.20;;;;;;5052121;28;20125;-78
2021/03/19 09:42:21;;;;;;;17.50;12.35;;;11.40;71.80;;;;;;5053199;28;20036;-78
2021/03/19 09:45:13;;;;;;;18.20;12.90;;;12.50;70.70;;;;;;5059650;28;20124;-78
2021/03/19 09:47:43;;;;;;;19.75;11.98;;;13.70;68.80;;;;;;5053761;28;20025;-78
2021/03/19 09:50:27;;;;;;;19.13;12.52;;;14.20;64.10;;;;;;5054160;28;20033;-79
2021/03/19 09:53:07;;;;;;;17.35;12.70;;;13.30;59.30;;;;;;5052657;28;20029;-81
2021/03/19 09:55:48;;;;;;;16.95;11.82;;;13.00;65.80;;;;;;5071198;28;20082;-81
2021/03/19 09:58:23;;;;;;;;;;;13.90;63.50;;;;;;5074322;28;20016;-79
2021/03/19 10:01:02;;;;;;;20.25;12.68;;;13.70;62.70;;;;;;5073956;28;19912;-78
2021/03/19 10:03:50;;;;;;;18.52;12.65;;;12.50;63.20;;;;;;5074125;28;20025;-79
2021/03/19 10:06:19;;;;;;;19.30;12.93;;;11.90;64.80;;;;;;5073938;28;20035;-78
2021/03/19 10:08:45;;;;;;;19.30;11.13;;;12.30;63.30;;;;;;5073668;28;20495;-77
2021/03/19 10:11:14;;;;;;;18.67;12.30;;;12.40;61.40;;;;;;5073640;28;20067;-78
2021/03/19 10:13:42;;;;;;;17.50;11.70;;;13.10;61.30;;;;;;5064457;28;20052;-78
2021/03/19 10:16:19;;;;;;;17.08;11.52;;;12.80;60.40;;;;;;5053485;28;20041;-77
2021/03/19 10:18:45;;;;;;;16.08;10.82;;;13.30;60.00;;;;;;5053441;28;20100;-77
2021/03/19 10:21:21;;;;;;;14.10;8.57;;;13.70;57.40;;;;;;5053307;28;20108;-77
2021/03/19 10:23:57;;;;;;;17.60;11.55;;;11.90;58.70;;;;;;5053147;28;20086;-77
2021/03/19 10:26:28;;;;;;;14.55;9.88;;;13.10;60.10;;;;;;5053359;28;20033;-76
2021/03/19 10:29:22;;;;;;;14.60;10.25;;;13.80;57.10;;;;;;5060953;28;20430;-79
2021/03/19 10:31:52;;;;;;;14.07;9.80;;;14.10;55.80;;;;;;5059447;28;20376;-78
2021/03/19 10:34:47;;;;;;;12.20;8.18;;;13.90;55.60;;;;;;5063047;28;20033;-79
2021/03/19 10:37:25;;;;;;;10.60;7.68;;;10.80;55.20;;;;;;5058290;28;20066;-79
2021/03/19 10:39:56;;;;;;;14.00;8.25;;;9.70;59.50;;;;;;5062181;28;20035;-78
2021/03/19 10:42:28;;;;;;;13.45;7.93;;;10.20;59.40;;;;;;5059969;28;20021;-80
2021/03/19 10:45:18;;;;;;;10.77;8.30;;;9.90;60.30;;;;;;5085244;28;20020;-79
2021/03/19 10:48:12;;;;;;;12.57;8.57;;;10.60;59.10;;;;;;5081274;28;20112;-78
2021/03/19 10:50:58;;;;;;;13.15;7.75;;;10.90;58.50;;;;;;5052481;28;20132;-78
2021/03/19 10:53:51;;;;;;;12.60;7.25;;;11.50;57.10;;;;;;5052625;28;20102;-79
2021/03/19 10:56:18;;;;;;;10.25;7.18;;;11.60;55.10;;;;;;5052899;28;20036;-78
2021/03/19 10:58:55;;;;;;;10.63;7.10;;;12.60;53.50;;;;;;5052876;28;20021;-79
2021/03/19 11:01:37;;;;;;;9.73;7.30;;;13.20;51.50;;;;;;5052950;28;20095;-77
2021/03/19 11:04:25;;;;;;;11.32;6.32;;;13.30;51.70;;;;;;5051198;28;20021;-79
2021/03/19 11:06:52;;;;;;;8.75;6.15;;;12.90;50.60;;;;;;5052503;28;20183;-82
2021/03/19 11:09:21;;;;;;;8.63;6.55;;;13.50;50.00;;;;;;5073317;28;20028;-79
2021/03/19 11:11:53;;;;;;;11.90;6.90;;;14.10;49.50;;;;;;5071698;28;20036;-79
2021/03/19 11:14:22;;;;;;;11.27;6.97;;;14.90;49.20;;;;;;5072320;28;20024;-79
2021/03/19 11:16:51;;;;;;;11.48;6.75;;;14.50;48.20;;;;;;5073222;28;20152;-79
2021/03/19 11:19:53;;;;;;;10.68;6.22;;;13.90;47.90;;;;;;5071112;28;20081;-80
2021/03/19 11:22:19;;;;;;;9.85;6.78;;;13.40;48.60;;;;;;5070254;28;20030;-80
2021/03/19 11:24:45;;;;;;;9.55;6.78;;;13.20;48.40;;;;;;5071072;28;20092;-79
2021/03/19 11:27:24;;;;;;;12.48;6.80;;;13.40;48.90;;;;;;5069969;28;20020;-81
2021/03/19 11:30:07;;;;;;;11.30;6.55;;;12.70;49.30;;;;;;5071252;28;20028;-78
2021/03/19 11:32:34;;;;;;;10.13;7.03;;;12.80;49.50;;;;;;5071219;28;20737;-78
2021/03/19 11:35:17;;;;;;;11.35;6.95;;;12.80;49.30;;;;;;5070773;28;20040;-78
2021/03/19 11:37:46;;;;;;;10.88;6.57;;;12.70;49.40;;;;;;5070697;28;20024;-78
2021/03/19 11:40:30;;;;;;;11.07;7.03;;;12.50;50.00;;;;;;5070824;28;20021;-78
2021/03/19 11:43:00;;;;;;;10.00;6.85;;;13.00;49.60;;;;;;5070790;28;20021;-77
2021/03/19 11:45:38;;;;;;;12.60;6.82;;;12.80;48.60;;;;;;5088422;28;20032;-77
2021/03/19 11:48:24;;;;;;;11.82;7.25;;;14.00;48.40;;;;;;5091793;28;20027;-78
2021/03/19 11:51:10;;;;;;;14.30;8.50;;;14.80;48.00;;;;;;5091702;28;20044;-77
2021/03/19 11:53:37;;;;;;;12.63;9.00;;;15.40;47.70;;;;;;5090568;28;20032;-78
2021/03/19 11:56:04;;;;;;;14.00;8.93;;;15.00;47.00;;;;;;5091167;28;20074;-78
2021/03/19 11:58:32;;;;;;;13.02;9.05;;;14.80;47.20;;;;;;5067828;28;20040;-79
2021/03/19 12:00:59;;;;;;;13.48;8.20;;;14.30;48.20;;;;;;5069599;28;21411;-78
2021/03/19 12:03:32;;;;;;;15.80;9.10;;;14.00;47.90;;;;;;5063283;28;20047;-77
2021/03/19 12:05:58;;;;;;;12.98;8.85;;;13.40;49.90;;;;;;5063741;28;21215;-78
2021/03/19 12:08:26;;;;;;;13.13;9.23;;;14.00;51.40;;;;;;5063641;28;20025;-83
2021/03/19 12:10:52;;;;;;;12.88;8.75;;;14.90;49.80;;;;;;5070895;28;20071;-80
2021/03/19 12:13:18;;;;;;;13.57;9.35;;;14.20;50.70;;;;;;5071434;28;20036;-78
2021/03/19 12:15:44;;;;;;;13.40;8.55;;;14.60;50.70;;;;;;5072773;28;20032;-78
2021/03/19 12:18:12;;;;;;;13.10;9.73;;;14.80;48.40;;;;;;5074632;28;20443;-79
2021/03/19 12:20:38;;;;;;;11.35;7.95;;;13.70;48.30;;;;;;5072848;28;20028;-78
2021/03/19 12:23:04;;;;;;;12.43;8.30;;;13.60;48.50;;;;;;5074962;28;20028;-80
2021/03/19 12:25:34;;;;;;;14.98;8.43;;;13.30;48.70;;;;;;5069244;28;20029;-79
2021/03/19 12:28:00;;;;;;;12.30;8.18;;;13.70;48.90;;;;;;5067237;28;20023;-77
2021/03/19 12:30:27;;;;;;;11.98;8.70;;;14.30;48.70;;;;;;5073159;28;20036;-80
2021/03/19 12:32:54;;;;;;;11.60;8.35;;;15.50;47.70;;;;;;5074591;28;20039;-79
2021/03/19 12:35:23;;;;;;;13.10;9.55;;;15.70;47.70;;;;;;5072213;28;20062;-79
2021/03/19 12:37:51;;;;;;;11.95;8.43;;;15.50;44.40;;;;;;5071621;28;20044;-78
2021/03/19 12:40:22;;;;;;;11.88;8.00;;;16.60;47.90;;;;;;5071142;28;20028;-80
2021/03/19 12:42:49;;;;;;;11.10;8.05;;;17.90;44.40;;;;;;5070144;28;20038;-79
2021/03/19 12:45:18;;;;;;;11.50;8.57;;;17.80;43.80;;;;;;5073544;28;20364;-79
2021/03/19 12:47:43;;;;;;;12.07;8.07;;;17.50;44.70;;;;;;5070325;28;20040;-78
2021/03/19 12:50:11;;;;;;;11.45;7.85;;;16.90;43.80;;;;;;5074775;28;20070;-78
2021/03/19 12:52:37;;;;;;;9.77;6.80;;;16.30;44.50;;;;;;5075977;28;20052;-77
2021/03/19 12:55:05;;;;;;;8.93;6.78;;;15.70;43.70;;;;;;5058368;28;20028;-78
2021/03/19 12:57:31;;;;;;;9.82;7.00;;;14.30;44.90;;;;;;5066386;28;20115;-78
2021/03/19 12:59:57;;;;;;;11.00;8.00;;;13.80;45.10;;;;;;5062570;28;20093;-77
2021/03/19 13:02:23;;;;;;;10.82;8.18;;;13.60;46.30;;;;;;5070169;28;20045;-78
2021/03/19 13:04:48;;;;;;;12.60;7.75;;;13.50;46.20;;;;;;5071947;28;20082;-77
2021/03/19 13:07:14;;;;;;;12.27;7.00;;;14.30;46.40;;;;;;5074073;28;20033;-79
2021/03/19 13:09:40;;;;;;;10.25;7.03;;;14.40;44.70;;;;;;5073182;28;20039;-77
2021/03/19 13:12:06;;;;;;;11.38;7.50;;;14.80;44.60;;;;;;5070711;28;20064;-77
2021/03/19 13:14:33;;;;;;;11.65;7.70;;;15.60;44.20;;;;;;5077163;28;20373;-78
2021/03/19 13:17:00;;;;;;;11.10;7.47;;;15.50;43.10;;;;;;5070956;28;20028;-80